Time;durP1;ratioP1;P1;durP2;ratioP2;P2;SDS_P1;SDS_P2;PMS_P1;PMS_P2;Temp;Humidity;BMP_temperature;BMP_pressure;BME280_temperature;BME280_humidity;BME280_pressure;Samples;Min_cycle;Max_cycle;Signal;HPM_P1;HPM_P2
2021/10/26 00:02:11;;;;;;;4.88;3.65;;;10.40;99.90;;;;;;5039038;28;20048;-83
2021/10/26 00:04:38;;;;;;;8.27;5.60;;;10.30;99.90;;;;;;5027350;28;20053;-82
2021/10/26 00:07:04;;;;;;;8.30;4.43;;;10.30;99.90;;;;;;5011804;28;20424;-82
2021/10/26 00:09:30;;;;;;;;;;;10.20;99.90;;;;;;5019957;28;20045;-83
2021/10/26 00:11:56;;;;;;;8.23;3.38;;;10.20;99.90;;;;;;5025953;28;19917;-81
2021/10/26 00:14:21;;;;;;;2.45;1.98;;;10.10;99.90;;;;;;5024523;28;20045;-82
2021/10/26 00:16:47;;;;;;;3.15;2.20;;;10.00;99.90;;;;;;5020616;28;20038;-81
2021/10/26 00:19:13;;;;;;;4.07;2.25;;;10.00;99.90;;;;;;5028985;28;20041;-82
2021/10/26 00:21:39;;;;;;;;;;;9.90;99.90;;;;;;5032708;28;20053;-81
2021/10/26 00:24:05;;;;;;;2.20;1.42;;;9.80;99.90;;;;;;5022234;28;20338;-81
2021/10/26 00:26:31;;;;;;;4.45;2.38;;;9.70;99.90;;;;;;5019304;28;20096;-81
2021/10/26 00:28:57;;;;;;;1.60;1.50;;;9.70;99.90;;;;;;5014592;28;20392;-79
2021/10/26 00:31:24;;;;;;;2.65;2.10;;;9.70;99.90;;;;;;5033740;28;20138;-80
2021/10/26 00:33:50;;;;;;;2.78;1.83;;;9.60;99.90;;;;;;5034107;28;20092;-80
2021/10/26 00:36:17;;;;;;;4.93;1.65;;;9.50;99.90;;;;;;5016628;28;20490;-79
2021/10/26 00:38:43;;;;;;;3.63;1.90;;;9.50;99.90;;;;;;5025660;28;20046;-82
2021/10/26 00:41:08;;;;;;;;;;;9.50;99.90;;;;;;5029730;28;20044;-79
2021/10/26 00:43:35;;;;;;;8.73;2.25;;;9.50;99.90;;;;;;5005871;28;20008;-78
2021/10/26 00:46:00;;;;;;;3.78;1.63;;;9.50;99.90;;;;;;5031649;28;20054;-79
2021/10/26 00:48:26;;;;;;;3.63;1.77;;;9.50;99.90;;;;;;5038099;28;20033;-79
2021/10/26 00:50:53;;;;;;;2.65;2.00;;;9.50;99.90;;;;;;5015129;28;20057;-79
2021/10/26 00:53:20;;;;;;;3.95;2.65;;;9.40;99.90;;;;;;5045411;28;20045;-78
2021/10/26 00:55:47;;;;;;;2.13;1.92;;;9.40;99.90;;;;;;5012736;28;20727;-79
2021/10/26 00:58:13;;;;;;;5.43;2.78;;;9.40;99.90;;;;;;5018698;28;20053;-78
2021/10/26 01:00:39;;;;;;;4.15;2.90;;;9.30;99.90;;;;;;5013383;28;20069;-78
2021/10/26 01:03:04;;;;;;;5.80;2.92;;;9.30;99.90;;;;;;5062621;28;20340;-78
2021/10/26 01:05:31;;;;;;;6.63;3.22;;;9.30;99.90;;;;;;5016024;28;20494;-78
2021/10/26 01:07:57;;;;;;;2.60;2.03;;;9.40;99.90;;;;;;5025093;28;20049;-78
2021/10/26 01:10:22;;;;;;;3.97;2.33;;;9.50;99.90;;;;;;5013568;28;20038;-78
2021/10/26 01:12:49;;;;;;;;;;;9.50;99.90;;;;;;5054172;28;20049;-77
2021/10/26 01:15:15;;;;;;;8.90;4.75;;;9.60;99.90;;;;;;5015245;28;19917;-78
2021/10/26 01:17:41;;;;;;;11.48;6.47;;;9.60;99.90;;;;;;5015212;28;20042;-77
2021/10/26 01:20:07;;;;;;;10.65;6.78;;;9.70;99.90;;;;;;5012137;28;20044;-78
2021/10/26 01:22:40;;;;;;;11.05;5.68;;;9.90;99.90;;;;;;5029610;28;20095;-77
2021/10/26 01:25:08;;;;;;;9.18;5.40;;;10.00;99.90;;;;;;5017054;28;20381;-78
2021/10/26 01:27:34;;;;;;;13.82;7.43;;;10.00;99.90;;;;;;5015147;28;20038;-78
2021/10/26 01:29:59;;;;;;;12.13;7.85;;;10.10;99.90;;;;;;5016726;28;20169;-77
2021/10/26 01:32:25;;;;;;;16.05;8.98;;;10.10;99.90;;;;;;4997001;28;20060;-78
2021/10/26 01:34:50;;;;;;;17.15;9.10;;;10.10;99.90;;;;;;5019121;28;20445;-77
2021/10/26 01:37:17;;;;;;;11.45;6.85;;;10.10;99.90;;;;;;5029142;28;20046;-77
2021/10/26 01:39:43;;;;;;;16.77;7.90;;;10.10;99.90;;;;;;5026183;28;20039;-77
2021/10/26 01:42:09;;;;;;;8.70;6.65;;;10.10;99.90;;;;;;5044597;28;20064;-77
2021/10/26 01:44:35;;;;;;;10.10;7.97;;;10.10;99.90;;;;;;5025009;28;20049;-77
2021/10/26 01:47:02;;;;;;;20.10;9.57;;;10.10;99.90;;;;;;5028404;28;20393;-77
2021/10/26 01:49:28;;;;;;;17.90;7.95;;;10.00;99.90;;;;;;5021289;28;20050;-77
2021/10/26 01:51:54;;;;;;;;;;;10.00;99.90;;;;;;5023984;28;20041;-77
2021/10/26 01:54:20;;;;;;;10.32;8.93;;;10.00;99.90;;;;;;5012366;28;19927;-77
2021/10/26 01:56:46;;;;;;;;;;;9.90;99.90;;;;;;5005026;28;20064;-77
2021/10/26 01:59:12;;;;;;;13.45;8.52;;;9.90;99.90;;;;;;5054338;28;19967;-77
2021/10/26 02:01:38;;;;;;;13.27;8.52;;;10.00;99.90;;;;;;5021304;28;20034;-77
2021/10/26 02:04:04;;;;;;;15.07;6.78;;;9.90;99.90;;;;;;5019501;28;20136;-77
2021/10/26 02:06:30;;;;;;;12.32;7.03;;;9.90;99.90;;;;;;5019870;28;20056;-77
2021/10/26 02:08:56;;;;;;;10.15;6.20;;;9.80;99.90;;;;;;5044270;28;20038;-77
2021/10/26 02:11:22;;;;;;;12.45;8.57;;;9.80;99.90;;;;;;5046130;28;20041;-77
2021/10/26 02:13:48;;;;;;;18.67;10.68;;;9.80;99.90;;;;;;5052179;28;20045;-76
2021/10/26 02:16:13;;;;;;;11.35;8.30;;;9.80;99.90;;;;;;5012669;28;20073;-77
2021/10/26 02:18:39;;;;;;;15.43;7.47;;;9.80;99.90;;;;;;5025502;28;20451;-77
2021/10/26 02:21:06;;;;;;;14.90;7.93;;;9.80;99.90;;;;;;5040644;28;20038;-76
2021/10/26 02:23:32;;;;;;;16.55;12.20;;;9.80;99.90;;;;;;5025231;28;20049;-76
2021/10/26 02:25:57;;;;;;;11.10;8.43;;;9.90;99.90;;;;;;5012980;28;20042;-77
2021/10/26 02:28:23;;;;;;;19.77;8.07;;;9.90;99.90;;;;;;5035232;28;20045;-76
2021/10/26 02:30:49;;;;;;;10.02;8.63;;;10.00;99.90;;;;;;5026906;28;20056;-76
2021/10/26 02:33:15;;;;;;;13.27;8.65;;;10.00;99.90;;;;;;5047283;28;20057;-76
2021/10/26 02:35:41;;;;;;;10.30;9.13;;;10.10;99.90;;;;;;5020512;28;20117;-76
2021/10/26 02:38:06;;;;;;;14.93;9.10;;;10.10;99.90;;;;;;5029859;28;20037;-76
2021/10/26 02:40:33;;;;;;;10.13;7.13;;;10.10;99.90;;;;;;5027209;28;20041;-76
2021/10/26 02:42:59;;;;;;;22.15;12.82;;;10.00;99.90;;;;;;5017755;28;20442;-76
2021/10/26 02:45:28;;;;;;;;;;;9.90;99.90;;;;;;5024969;28;20446;-76
2021/10/26 02:47:55;;;;;;;12.43;8.88;;;9.90;99.90;;;;;;5013662;28;20268;-76
2021/10/26 02:50:20;;;;;;;28.55;8.73;;;9.80;99.90;;;;;;5010114;28;20073;-76
2021/10/26 02:52:47;;;;;;;10.10;6.93;;;9.80;99.90;;;;;;5043911;28;20515;-76
2021/10/26 02:55:12;;;;;;;;;;;9.70;99.90;;;;;;5028413;28;20069;-76
2021/10/26 02:57:38;;;;;;;16.52;7.40;;;9.70;99.90;;;;;;5021907;28;19968;-76
2021/10/26 03:00:06;;;;;;;9.70;7.32;;;9.60;99.90;;;;;;5015815;28;20080;-76
2021/10/26 03:02:32;;;;;;;8.57;7.78;;;9.60;99.90;;;;;;5026991;28;20552;-76
2021/10/26 03:04:58;;;;;;;17.98;7.85;;;9.50;99.90;;;;;;5042651;28;20037;-77
2021/10/26 03:07:23;;;;;;;13.38;8.15;;;9.50;99.90;;;;;;5013668;28;20042;-76
2021/10/26 03:09:49;;;;;;;21.70;7.57;;;9.50;99.90;;;;;;5019616;28;20099;-76
2021/10/26 03:12:15;;;;;;;;;;;9.50;99.90;;;;;;5022725;28;20095;-79
2021/10/26 03:14:41;;;;;;;9.52;7.65;;;9.50;99.90;;;;;;5021686;28;19925;-77
2021/10/26 03:17:06;;;;;;;9.98;6.22;;;9.50;99.90;;;;;;5019998;28;20072;-76
2021/10/26 03:19:32;;;;;;;15.27;8.63;;;9.40;99.90;;;;;;5021949;28;20038;-77
2021/10/26 03:21:58;;;;;;;14.30;10.23;;;9.40;99.90;;;;;;5023568;28;20041;-77
2021/10/26 03:24:23;;;;;;;12.90;7.55;;;9.40;99.90;;;;;;5029457;28;20110;-76
2021/10/26 03:26:49;;;;;;;20.23;7.43;;;9.40;99.90;;;;;;5014679;28;20065;-76
2021/10/26 03:29:15;;;;;;;16.65;6.70;;;9.40;99.90;;;;;;5003215;28;20045;-76
2021/10/26 03:31:41;;;;;;;;;;;9.50;99.90;;;;;;5014511;28;20141;-76
2021/10/26 03:34:07;;;;;;;10.82;6.82;;;9.50;99.90;;;;;;5020426;28;20027;-76
2021/10/26 03:36:33;;;;;;;11.38;6.75;;;9.40;99.90;;;;;;5025687;28;20038;-76
2021/10/26 03:38:59;;;;;;;14.48;8.40;;;9.40;99.90;;;;;;5003147;28;20098;-76
2021/10/26 03:41:25;;;;;;;11.57;7.03;;;9.40;99.90;;;;;;5021115;28;20038;-76
2021/10/26 03:43:51;;;;;;;12.73;7.57;;;9.30;99.90;;;;;;5017342;28;20172;-76
2021/10/26 03:46:17;;;;;;;12.35;6.25;;;9.30;99.90;;;;;;5029897;28;20049;-76
2021/10/26 03:48:43;;;;;;;17.92;9.07;;;9.20;99.90;;;;;;5023145;28;20509;-76
2021/10/26 03:51:10;;;;;;;10.35;9.10;;;9.20;99.90;;;;;;5046298;28;20057;-76
2021/10/26 03:53:37;;;;;;;12.15;7.47;;;9.20;99.90;;;;;;5025943;28;20048;-76
2021/10/26 03:56:04;;;;;;;11.07;5.75;;;9.30;99.90;;;;;;5022334;28;20042;-76
2021/10/26 03:58:31;;;;;;;12.18;6.90;;;9.30;99.90;;;;;;5055088;28;20048;-76
2021/10/26 04:00:57;;;;;;;16.00;7.60;;;9.20;99.90;;;;;;5029076;28;20097;-76
2021/10/26 04:03:24;;;;;;;6.50;5.38;;;9.20;99.90;;;;;;5020362;28;20469;-76
2021/10/26 04:11:19;;;;;;;7.20;6.20;;;9.20;99.90;;;;;;5046021;28;20518;-76
2021/10/26 04:13:45;;;;;;;12.32;8.55;;;9.20;99.90;;;;;;5000249;28;20418;-76
2021/10/26 04:16:11;;;;;;;;;;;9.20;99.90;;;;;;5022430;28;20046;-76
2021/10/26 04:18:37;;;;;;;9.18;6.38;;;9.20;99.90;;;;;;5035331;28;19928;-76
2021/10/26 04:21:03;;;;;;;;;;;9.20;99.90;;;;;;5045522;28;20488;-76
2021/10/26 04:23:29;;;;;;;6.63;5.80;;;9.10;99.90;;;;;;5053672;28;19930;-76
2021/10/26 04:25:55;;;;;;;8.57;6.03;;;9.20;99.90;;;;;;5048065;28;20137;-76
2021/10/26 04:28:21;;;;;;;14.60;9.35;;;9.10;99.90;;;;;;5024758;28;20073;-76
2021/10/26 04:30:48;;;;;;;10.63;6.53;;;9.10;99.90;;;;;;5031667;28;20116;-77
2021/10/26 04:33:14;;;;;;;15.73;8.65;;;9.10;99.90;;;;;;5016300;28;20128;-76
2021/10/26 04:35:40;;;;;;;12.38;6.28;;;9.10;99.90;;;;;;5025058;28;20045;-76
2021/10/26 04:38:07;;;;;;;12.20;5.95;;;9.10;99.90;;;;;;5020214;28;22313;-76
2021/10/26 04:40:33;;;;;;;10.57;6.40;;;9.10;99.90;;;;;;5029259;28;20041;-75
2021/10/26 04:43:00;;;;;;;8.02;6.38;;;9.00;99.90;;;;;;5025899;28;20453;-76
2021/10/26 04:45:26;;;;;;;7.53;4.88;;;9.00;99.90;;;;;;5006471;28;20048;-76
2021/10/26 04:47:52;;;;;;;6.15;4.70;;;8.90;99.90;;;;;;5027262;28;20033;-76
2021/10/26 04:50:19;;;;;;;15.93;6.97;;;8.90;99.90;;;;;;5021819;28;20495;-76
2021/10/26 04:52:45;;;;;;;6.85;4.57;;;8.80;99.90;;;;;;5027371;28;20048;-76
2021/10/26 04:55:11;;;;;;;12.57;5.38;;;8.70;99.90;;;;;;5031969;28;20495;-77
2021/10/26 04:57:37;;;;;;;7.70;4.28;;;8.70;99.90;;;;;;5034432;28;20052;-76
2021/10/26 05:00:05;;;;;;;16.63;6.00;;;8.70;99.90;;;;;;5002426;28;20045;-76
2021/10/26 05:02:30;;;;;;;10.70;4.70;;;8.60;99.90;;;;;;5043900;28;20705;-76
2021/10/26 05:04:56;;;;;;;12.70;7.18;;;8.60;99.90;;;;;;5047711;28;20033;-76
2021/10/26 05:07:21;;;;;;;10.93;5.50;;;8.60;99.90;;;;;;5025692;28;20041;-76
2021/10/26 05:09:47;;;;;;;7.90;5.40;;;8.60;99.90;;;;;;5031008;28;20037;-76
2021/10/26 05:12:13;;;;;;;9.82;5.03;;;8.50;99.90;;;;;;5013371;28;20041;-77
2021/10/26 05:14:39;;;;;;;5.70;4.57;;;8.60;99.90;;;;;;5014333;28;20041;-76
2021/10/26 05:17:06;;;;;;;7.03;3.22;;;8.50;99.90;;;;;;5050302;28;20037;-77
2021/10/26 05:19:33;;;;;;;7.15;5.65;;;8.50;99.90;;;;;;5024354;28;20069;-76
2021/10/26 05:21:58;;;;;;;12.13;4.30;;;8.50;99.90;;;;;;5020242;28;20041;-77
2021/10/26 05:24:25;;;;;;;4.80;3.90;;;8.50;99.90;;;;;;5024306;28;20484;-77
2021/10/26 05:26:52;;;;;;;10.38;5.55;;;8.70;99.90;;;;;;5014052;28;20494;-76
2021/10/26 05:29:18;;;;;;;6.32;4.85;;;8.60;99.90;;;;;;5044787;28;20050;-76
2021/10/26 05:31:44;;;;;;;9.13;5.03;;;8.80;99.90;;;;;;5047065;28;20506;-77
2021/10/26 05:34:10;;;;;;;10.13;6.93;;;8.90;99.90;;;;;;5026779;28;20054;-77
2021/10/26 05:36:39;;;;;;;13.75;6.57;;;9.00;99.90;;;;;;5003086;28;20096;-78
2021/10/26 05:39:09;;;;;;;19.45;6.13;;;9.00;99.90;;;;;;5020484;28;20037;-74
2021/10/26 05:41:36;;;;;;;15.57;8.18;;;9.10;99.90;;;;;;5016483;28;20045;-77
2021/10/26 05:44:03;;;;;;;18.60;8.85;;;9.10;99.90;;;;;;5006945;28;20053;-75
2021/10/26 05:46:29;;;;;;;6.65;5.10;;;9.10;99.90;;;;;;5020614;28;20128;-76
2021/10/26 05:48:55;;;;;;;13.25;5.40;;;9.20;99.90;;;;;;5021868;28;20817;-75
2021/10/26 05:51:21;;;;;;;11.10;6.28;;;9.10;99.90;;;;;;5014796;28;20050;-75
2021/10/26 05:53:46;;;;;;;12.98;7.13;;;9.20;99.90;;;;;;5022216;28;20395;-76
2021/10/26 05:56:13;;;;;;;14.32;6.35;;;9.20;99.90;;;;;;5023844;28;20041;-76
2021/10/26 05:58:38;;;;;;;;;;;9.20;99.90;;;;;;5024673;28;20046;-76
2021/10/26 06:01:04;;;;;;;14.35;5.88;;;9.20;99.90;;;;;;4999627;28;20409;-77
2021/10/26 06:03:32;;;;;;;22.15;7.30;;;9.30;99.90;;;;;;5047006;28;20053;-75
2021/10/26 06:05:57;;;;;;;13.02;7.45;;;9.30;99.90;;;;;;5021488;28;20050;-76
2021/10/26 06:08:23;;;;;;;6.60;5.63;;;9.30;99.90;;;;;;5019414;28;20045;-76
2021/10/26 06:10:57;;;;;;;19.35;8.32;;;9.30;99.90;;;;;;5018864;28;20053;-76
2021/10/26 06:13:31;;;;;;;11.13;5.75;;;9.30;99.90;;;;;;5012660;28;20050;-76
2021/10/26 06:15:57;;;;;;;7.35;6.10;;;9.30;99.90;;;;;;5026941;28;20551;-76
2021/10/26 06:18:22;;;;;;;14.65;7.30;;;9.30;99.90;;;;;;5037787;28;20038;-76
2021/10/26 06:20:48;;;;;;;9.85;6.20;;;9.30;99.90;;;;;;5015065;28;20449;-76
2021/10/26 06:23:14;;;;;;;16.15;7.07;;;9.40;99.90;;;;;;5040975;28;20100;-75
2021/10/26 06:25:40;;;;;;;11.27;6.28;;;9.40;99.90;;;;;;5020846;28;20078;-74
2021/10/26 06:28:06;;;;;;;12.35;6.65;;;9.40;99.90;;;;;;5022458;28;20076;-77
2021/10/26 06:30:32;;;;;;;11.02;5.93;;;9.40;99.90;;;;;;5014029;28;20057;-76
2021/10/26 06:32:58;;;;;;;;;;;9.50;99.90;;;;;;5027275;28;20061;-75
2021/10/26 06:35:23;;;;;;;18.05;7.22;;;9.50;99.90;;;;;;5019483;28;20006;-76
2021/10/26 06:37:49;;;;;;;19.95;10.93;;;9.40;99.90;;;;;;5022118;28;20046;-75
2021/10/26 06:40:20;;;;;;;9.73;7.82;;;9.50;99.90;;;;;;5017053;28;20484;-74
2021/10/26 06:42:45;;;;;;;10.07;5.70;;;9.40;99.90;;;;;;5049745;28;20041;-75
2021/10/26 06:45:12;;;;;;;9.65;7.53;;;9.40;99.90;;;;;;5011006;28;20388;-76
2021/10/26 06:47:38;;;;;;;;;;;9.50;99.90;;;;;;5028191;28;20053;-76
2021/10/26 06:50:05;;;;;;;12.27;6.50;;;9.50;99.90;;;;;;5027928;28;19917;-76
2021/10/26 06:52:31;;;;;;;7.50;5.25;;;9.50;99.90;;;;;;5028106;28;20050;-79
2021/10/26 06:54:57;;;;;;;10.30;7.13;;;9.50;99.90;;;;;;5029559;28;20072;-77
2021/10/26 06:57:24;;;;;;;21.77;7.22;;;9.50;99.90;;;;;;5025369;28;20104;-79
2021/10/26 06:59:51;;;;;;;11.65;8.35;;;9.60;99.90;;;;;;5030708;28;20059;-79
2021/10/26 07:02:17;;;;;;;13.63;7.07;;;9.70;99.90;;;;;;5022540;28;20049;-79
2021/10/26 07:04:44;;;;;;;11.55;7.45;;;9.70;99.90;;;;;;5016748;28;20052;-77
2021/10/26 07:07:09;;;;;;;11.75;7.13;;;9.80;99.90;;;;;;5054344;28;20140;-79
2021/10/26 07:09:35;;;;;;;22.73;8.65;;;10.00;99.90;;;;;;5024205;28;20520;-78
2021/10/26 07:12:01;;;;;;;15.30;8.65;;;9.90;99.90;;;;;;5051348;28;20714;-79
2021/10/26 07:14:27;;;;;;;14.68;8.25;;;9.90;99.90;;;;;;5024080;28;20041;-79
2021/10/26 07:16:53;;;;;;;;;;;9.90;99.90;;;;;;5020447;28;20049;-79
2021/10/26 07:19:19;;;;;;;12.02;8.75;;;9.90;99.90;;;;;;5015633;28;19971;-80
2021/10/26 07:21:45;;;;;;;9.45;5.97;;;10.00;99.90;;;;;;5048923;28;20044;-81
2021/10/26 07:24:13;;;;;;;16.27;7.32;;;10.00;99.90;;;;;;5056199;28;20063;-80
2021/10/26 07:26:40;;;;;;;15.60;8.13;;;10.00;99.90;;;;;;5037893;28;20100;-81
2021/10/26 07:29:06;;;;;;;14.20;8.40;;;10.00;99.90;;;;;;5016071;28;20084;-81
2021/10/26 07:31:33;;;;;;;11.15;5.97;;;10.10;99.90;;;;;;5031115;28;20444;-81
2021/10/26 07:34:00;;;;;;;19.85;8.40;;;10.10;99.90;;;;;;5027774;28;20049;-81
2021/10/26 07:36:31;;;;;;;12.80;9.10;;;;;;;;;;5033150;28;20046;-81
2021/10/26 07:39:01;;;;;;;12.40;6.60;;;10.30;99.90;;;;;;5021500;28;20120;-79
2021/10/26 07:41:27;;;;;;;10.52;7.88;;;10.30;99.90;;;;;;5051958;28;20045;-79
2021/10/26 07:43:54;;;;;;;15.73;9.10;;;10.30;99.90;;;;;;5021499;28;20790;-79
2021/10/26 07:46:20;;;;;;;15.93;7.97;;;10.30;99.90;;;;;;5049246;28;20046;-80
2021/10/26 07:48:45;;;;;;;9.43;6.95;;;10.40;99.90;;;;;;5048130;28;20199;-80
2021/10/26 07:51:11;;;;;;;9.73;4.70;;;10.40;99.90;;;;;;5022062;28;20054;-80
2021/10/26 07:53:37;;;;;;;9.75;7.32;;;10.50;99.90;;;;;;5030946;28;20046;-85
2021/10/26 07:56:05;;;;;;;13.52;7.47;;;10.50;99.90;;;;;;5014269;28;20061;-79
2021/10/26 07:58:40;;;;;;;10.95;6.75;;;10.60;99.90;;;;;;5042318;28;20071;-78
2021/10/26 08:01:06;;;;;;;18.83;8.10;;;10.60;99.90;;;;;;5020438;28;20073;-81
2021/10/26 08:03:33;;;;;;;;;;;10.60;99.90;;;;;;5056320;28;20042;-78
2021/10/26 08:05:59;;;;;;;13.63;6.90;;;10.60;99.90;;;;;;5019339;28;20395;-80
2021/10/26 08:08:25;;;;;;;;;;;10.60;99.90;;;;;;5023306;28;20042;-80
2021/10/26 08:10:51;;;;;;;5.95;5.18;;;10.60;99.90;;;;;;5006740;28;20317;-80
2021/10/26 08:13:17;;;;;;;11.88;7.30;;;10.60;99.90;;;;;;5048775;28;20050;-79
2021/10/26 08:15:42;;;;;;;8.43;5.57;;;10.70;99.90;;;;;;5024407;28;20042;-79
2021/10/26 08:18:08;;;;;;;5.75;5.15;;;10.70;99.90;;;;;;5036040;28;20406;-79
2021/10/26 08:20:34;;;;;;;12.48;6.13;;;10.70;99.90;;;;;;5031227;28;20077;-79
2021/10/26 08:23:00;;;;;;;17.98;8.90;;;10.70;99.90;;;;;;5027297;28;20086;-83
2021/10/26 08:25:29;;;;;;;11.43;6.28;;;10.60;99.90;;;;;;5002625;28;20102;-82
2021/10/26 08:27:59;;;;;;;14.30;7.20;;;10.60;99.90;;;;;;4976885;28;20108;-78
2021/10/26 08:32:59;;;;;;;12.30;5.95;;;10.70;99.90;;;;;;5020319;28;20061;-80
2021/10/26 08:35:28;;;;;;;9.18;5.93;;;10.70;99.90;;;;;;5024307;28;20065;-80
2021/10/26 08:37:58;;;;;;;12.27;5.28;;;10.80;99.90;;;;;;5016776;28;20498;-80
2021/10/26 08:40:25;;;;;;;7.18;6.40;;;10.80;99.90;;;;;;5023670;28;20069;-80
2021/10/26 08:42:52;;;;;;;14.02;5.82;;;10.90;99.90;;;;;;5016716;28;20506;-81
2021/10/26 08:45:20;;;;;;;14.38;6.80;;;10.90;99.90;;;;;;5008862;28;20049;-79
2021/10/26 08:47:46;;;;;;;9.98;5.07;;;10.90;99.90;;;;;;5030725;28;20092;-80
2021/10/26 08:50:13;;;;;;;;;;;10.90;99.90;;;;;;5046559;28;20042;-79
2021/10/26 08:52:38;;;;;;;9.05;4.95;;;11.00;99.90;;;;;;5013667;28;19924;-84
2021/10/26 08:55:08;;;;;;;8.38;5.15;;;11.10;99.90;;;;;;5022479;28;20042;-76
2021/10/26 08:57:35;;;;;;;8.70;4.38;;;11.10;99.90;;;;;;5004727;28;20379;-78
2021/10/26 09:00:06;;;;;;;7.72;5.95;;;11.10;99.90;;;;;;5040355;28;20061;-81
2021/10/26 09:02:43;;;;;;;13.25;7.47;;;11.20;99.90;;;;;;5011947;28;20107;-77
2021/10/26 09:05:18;;;;;;;7.90;5.53;;;11.30;99.90;;;;;;5020676;28;20049;-82
2021/10/26 09:08:00;;;;;;;12.32;5.80;;;11.30;99.90;;;;;;5030167;28;20041;-83
2021/10/26 09:10:29;;;;;;;11.27;6.78;;;11.40;99.90;;;;;;5033856;28;20121;-81
2021/10/26 09:16:51;;;;;;;12.65;4.90;;;11.50;99.90;;;;;;5026365;28;20059;-80
2021/10/26 09:19:20;;;;;;;9.13;5.97;;;11.50;99.90;;;;;;5022186;28;20041;-81
2021/10/26 09:22:05;;;;;;;11.45;6.25;;;11.60;99.90;;;;;;5011301;28;20045;-83
2021/10/26 09:24:32;;;;;;;12.02;5.50;;;11.70;99.90;;;;;;5029930;28;20052;-80
2021/10/26 09:27:00;;;;;;;9.32;5.10;;;11.80;99.90;;;;;;4997398;28;20054;-80
2021/10/26 09:29:29;;;;;;;11.40;5.45;;;11.80;99.90;;;;;;5025565;28;20410;-77
2021/10/26 09:32:06;;;;;;;11.38;5.47;;;12.00;99.90;;;;;;5017336;28;20093;-78
2021/10/26 09:34:42;;;;;;;14.15;5.25;;;12.00;99.90;;;;;;5012189;28;20053;-84
2021/10/26 09:37:08;;;;;;;10.95;5.53;;;12.00;99.90;;;;;;5031754;28;20037;-81
2021/10/26 09:39:35;;;;;;;5.95;4.30;;;12.10;99.90;;;;;;5009914;28;20045;-79
2021/10/26 09:42:03;;;;;;;;;;;12.20;99.90;;;;;;5035770;28;20160;-79
2021/10/26 09:44:39;;;;;;;9.40;3.95;;;12.20;99.90;;;;;;5031367;28;19921;-81
2021/10/26 09:47:07;;;;;;;10.45;5.15;;;12.30;99.90;;;;;;5018470;28;20046;-80
2021/10/26 09:49:38;;;;;;;6.78;3.97;;;12.40;99.90;;;;;;5010769;28;20042;-79
2021/10/26 09:52:20;;;;;;;9.07;5.20;;;12.50;99.90;;;;;;5003614;28;20125;-83
2021/10/26 09:54:48;;;;;;;12.70;5.88;;;12.60;99.90;;;;;;5052050;28;20042;-82
2021/10/26 09:57:18;;;;;;;12.43;5.63;;;12.60;99.90;;;;;;5028803;28;20069;-80
2021/10/26 09:59:49;;;;;;;6.72;5.18;;;12.60;99.90;;;;;;5013432;28;20034;-80
2021/10/26 10:02:21;;;;;;;9.50;5.13;;;12.70;99.90;;;;;;5033900;28;20491;-78
2021/10/26 10:04:49;;;;;;;10.70;4.90;;;12.70;99.90;;;;;;5030847;28;20125;-80
2021/10/26 10:07:30;;;;;;;11.88;3.38;;;12.70;99.90;;;;;;5047122;28;20081;-81
2021/10/26 10:10:03;;;;;;;5.18;3.63;;;12.80;99.90;;;;;;5044490;28;20136;-81
2021/10/26 10:12:33;;;;;;;12.15;4.43;;;12.80;99.90;;;;;;5030370;28;20041;-80
2021/10/26 10:15:00;;;;;;;8.23;3.75;;;12.90;99.90;;;;;;5016207;28;20053;-78
2021/10/26 10:17:26;;;;;;;;;;;12.90;99.90;;;;;;5024822;28;20042;-78
2021/10/26 10:19:53;;;;;;;7.50;4.85;;;13.00;99.90;;;;;;5018578;28;19917;-81
2021/10/26 10:22:24;;;;;;;10.30;3.75;;;13.00;99.90;;;;;;5049080;28;20534;-82
2021/10/26 10:24:55;;;;;;;13.18;4.75;;;13.00;99.90;;;;;;5001594;28;20103;-79
2021/10/26 10:27:21;;;;;;;11.70;5.80;;;13.00;99.90;;;;;;5051418;28;20060;-78
2021/10/26 10:29:48;;;;;;;5.80;3.33;;;13.00;99.90;;;;;;5045793;28;20503;-78
2021/10/26 10:32:14;;;;;;;6.97;4.55;;;13.00;99.90;;;;;;5026135;28;20097;-76
2021/10/26 10:34:43;;;;;;;8.70;4.57;;;13.00;99.90;;;;;;5029344;28;20145;-78
2021/10/26 10:37:09;;;;;;;4.93;3.38;;;13.00;99.90;;;;;;5004179;28;20073;-78
2021/10/26 10:39:34;;;;;;;;;;;13.00;99.90;;;;;;5027967;28;20065;-79
2021/10/26 10:42:25;;;;;;;6.40;3.28;;;13.00;99.90;;;;;;5031654;28;20348;-80
2021/10/26 10:44:54;;;;;;;4.63;3.20;;;13.00;99.90;;;;;;5005711;28;20107;-81
2021/10/26 10:47:33;;;;;;;5.75;4.18;;;13.00;99.90;;;;;;5028570;28;20045;-78
2021/10/26 10:49:59;;;;;;;10.65;4.32;;;13.00;99.90;;;;;;5045741;28;20052;-77
2021/10/26 10:52:29;;;;;;;;;;;13.00;99.90;;;;;;5047856;28;20045;-80
2021/10/26 10:55:00;;;;;;;8.75;3.40;;;13.00;99.90;;;;;;5024506;28;20016;-80
2021/10/26 10:57:34;;;;;;;9.57;4.63;;;13.00;99.90;;;;;;5021732;28;20084;-80
2021/10/26 11:00:27;;;;;;;2.90;2.65;;;13.00;99.90;;;;;;5015691;28;20466;-80
2021/10/26 11:02:57;;;;;;;8.85;2.97;;;13.10;99.90;;;;;;5027517;28;20049;-77
2021/10/26 11:05:33;;;;;;;9.32;4.80;;;13.10;99.90;;;;;;5021001;28;20121;-78
2021/10/26 11:08:00;;;;;;;;;;;13.20;99.90;;;;;;5029568;28;20107;-78
2021/10/26 11:10:48;;;;;;;13.00;4.60;;;13.30;99.90;;;;;;5031856;28;19979;-79
2021/10/26 11:13:26;;;;;;;4.07;2.70;;;13.30;99.90;;;;;;5037509;28;20081;-79
2021/10/26 11:15:54;;;;;;;7.95;3.97;;;13.30;99.90;;;;;;5027072;28;20060;-79
2021/10/26 11:18:45;;;;;;;5.50;3.35;;;13.30;99.90;;;;;;5030352;28;20563;-78
2021/10/26 11:21:24;;;;;;;8.32;3.45;;;13.40;99.90;;;;;;5027841;28;20436;-78
2021/10/26 11:24:01;;;;;;;7.72;4.38;;;13.40;99.90;;;;;;5033192;28;20065;-78
2021/10/26 11:26:37;;;;;;;7.88;4.05;;;13.40;99.90;;;;;;5030331;28;20081;-77
2021/10/26 11:29:06;;;;;;;6.72;3.67;;;13.50;99.90;;;;;;5053268;28;20136;-80
2021/10/26 11:31:43;;;;;;;6.28;4.30;;;13.50;99.90;;;;;;5004191;28;20057;-75
2021/10/26 11:34:15;;;;;;;;;;;13.60;99.90;;;;;;5030269;28;20136;-80
2021/10/26 11:36:41;;;;;;;4.85;3.97;;;13.70;99.90;;;;;;5029934;28;19921;-77
2021/10/26 11:39:12;;;;;;;7.38;4.93;;;13.70;99.90;;;;;;5006874;28;20037;-78
2021/10/26 11:41:40;;;;;;;6.55;3.60;;;13.90;99.90;;;;;;5031131;28;20046;-78
2021/10/26 11:44:09;;;;;;;3.88;2.95;;;13.90;99.90;;;;;;5025079;28;20045;-78
2021/10/26 11:46:37;;;;;;;9.52;3.30;;;13.90;99.90;;;;;;5040709;28;20053;-79
2021/10/26 11:49:09;;;;;;;5.55;3.22;;;14.00;99.90;;;;;;5028622;28;20129;-79
2021/10/26 11:51:40;;;;;;;11.73;3.90;;;14.00;99.90;;;;;;5034097;28;20045;-79
2021/10/26 11:54:16;;;;;;;12.48;3.92;;;14.00;99.90;;;;;;5038691;28;20050;-79
2021/10/26 11:56:46;;;;;;;8.50;4.20;;;14.00;99.90;;;;;;5027265;28;20076;-78
2021/10/26 11:59:19;;;;;;;3.70;2.85;;;14.00;99.90;;;;;;5025975;28;20480;-78
2021/10/26 12:01:52;;;;;;;6.40;3.42;;;14.00;99.90;;;;;;5019741;28;20088;-79
2021/10/26 12:04:37;;;;;;;3.60;2.75;;;14.00;99.90;;;;;;5034110;28;20621;-78
2021/10/26 12:07:06;;;;;;;4.43;3.25;;;13.90;99.90;;;;;;5020102;28;20515;-81
2021/10/26 12:09:36;;;;;;;13.45;4.00;;;13.90;99.90;;;;;;5024761;28;20689;-79
2021/10/26 12:12:11;;;;;;;4.93;2.92;;;13.90;99.90;;;;;;5030228;28;20108;-78
2021/10/26 12:14:42;;;;;;;12.43;3.22;;;13.90;99.90;;;;;;5034079;28;20079;-78
2021/10/26 12:17:18;;;;;;;5.30;2.90;;;13.90;99.90;;;;;;5028570;28;20582;-78
2021/10/26 12:19:48;;;;;;;3.47;2.45;;;13.90;99.90;;;;;;5027848;28;20056;-79
2021/10/26 12:22:28;;;;;;;5.85;2.95;;;13.90;99.90;;;;;;5020815;28;20042;-79
2021/10/26 12:25:16;;;;;;;5.57;2.97;;;13.80;99.90;;;;;;5025846;28;20519;-81
2021/10/26 12:27:55;;;;;;;4.72;2.88;;;13.70;99.90;;;;;;5053782;28;20483;-78
2021/10/26 12:30:39;;;;;;;6.88;4.13;;;13.70;99.90;;;;;;5027153;28;20115;-80
2021/10/26 12:33:07;;;;;;;3.95;2.67;;;13.70;99.90;;;;;;5028931;28;20057;-78
2021/10/26 12:35:33;;;;;;;7.63;2.72;;;13.60;99.90;;;;;;5054535;28;20091;-82
2021/10/26 12:38:25;;;;;;;3.53;2.70;;;13.60;99.90;;;;;;5042102;28;20092;-80
2021/10/26 12:40:52;;;;;;;3.85;3.10;;;13.60;99.90;;;;;;5029715;28;20116;-77
2021/10/26 12:43:23;;;;;;;8.65;3.22;;;13.60;99.90;;;;;;5026611;28;20080;-77
2021/10/26 12:45:54;;;;;;;5.95;3.30;;;13.50;99.90;;;;;;5023646;28;20440;-79
2021/10/26 12:48:34;;;;;;;8.20;2.83;;;13.50;99.90;;;;;;5012551;28;20043;-78
2021/10/26 12:51:02;;;;;;;5.30;2.88;;;13.50;99.90;;;;;;5018729;28;20056;-78
2021/10/26 12:53:36;;;;;;;16.63;3.50;;;13.60;99.90;;;;;;4996701;28;20165;-78
2021/10/26 12:56:25;;;;;;;3.95;3.38;;;13.60;99.90;;;;;;5042959;28;20495;-78
2021/10/26 12:59:09;;;;;;;5.78;3.35;;;13.50;99.90;;;;;;5024544;28;20546;-77
2021/10/26 13:01:39;;;;;;;5.88;3.10;;;13.50;99.90;;;;;;5034603;28;20454;-77
2021/10/26 13:04:16;;;;;;;6.07;2.65;;;13.50;99.90;;;;;;5014521;28;20069;-78
2021/10/26 13:06:54;;;;;;;4.90;3.45;;;13.50;99.90;;;;;;5048429;28;20052;-78
2021/10/26 13:09:31;;;;;;;12.65;4.78;;;13.50;99.90;;;;;;5026983;28;20108;-81
2021/10/26 13:12:16;;;;;;;6.63;3.67;;;13.60;99.90;;;;;;5045046;28;20108;-80